sensor_id;sensor_type;location;lat;lon;timestamp;pressure;altitude;pressure_sealevel;temperature;humidity
48636;BME280;34429;52.332;5.614;2022-12-18T00:02:12;102799.09;;;-3.52;100.00
48636;BME280;34429;52.332;5.614;2022-12-18T00:04:40;102803.44;;;-3.54;100.00
48636;BME280;34429;52.332;5.614;2022-12-18T00:07:08;102799.03;;;-3.59;100.00
48636;BME280;34429;52.332;5.614;2022-12-18T00:09:37;102781.47;;;-3.70;100.00
48636;BME280;34429;52.332;5.614;2022-12-18T00:12:06;102783.25;;;-3.73;100.00
48636;BME280;34429;52.332;5.614;2022-12-18T00:14:34;102786.75;;;-3.71;100.00
48636;BME280;34429;52.332;5.614;2022-12-18T00:17:03;102791.13;;;-3.73;100.00
48636;BME280;34429;52.332;5.614;2022-12-18T00:19:34;102800.81;;;-3.69;100.00
48636;BME280;34429;52.332;5.614;2022-12-18T00:22:02;102785.84;;;-3.84;100.00
48636;BME280;34429;52.332;5.614;2022-12-18T00:24:31;102787.59;;;-3.84;100.00
48636;BME280;34429;52.332;5.614;2022-12-18T00:27:00;102780.59;;;-3.82;100.00
48636;BME280;34429;52.332;5.614;2022-12-18T00:29:28;102784.97;;;-3.83;100.00
48636;BME280;34429;52.332;5.614;2022-12-18T00:31:56;102766.53;;;-3.88;100.00
48636;BME280;34429;52.332;5.614;2022-12-18T00:34:25;102774.44;;;-3.83;100.00
48636;BME280;34429;52.332;5.614;2022-12-18T00:36:55;102769.16;;;-3.94;100.00
48636;BME280;34429;52.332;5.614;2022-12-18T00:39:24;102773.56;;;-3.93;100.00
48636;BME280;34429;52.332;5.614;2022-12-18T00:41:52;102778.81;;;-3.99;100.00
48636;BME280;34429;52.332;5.614;2022-12-18T00:44:33;102781.44;;;-3.97;100.00
48636;BME280;34429;52.332;5.614;2022-12-18T00:47:04;102781.44;;;-4.00;100.00
48636;BME280;34429;52.332;5.614;2022-12-18T00:49:32;102781.44;;;-3.99;100.00
48636;BME280;34429;52.332;5.614;2022-12-18T00:52:03;102775.25;;;-4.13;100.00
48636;BME280;34429;52.332;5.614;2022-12-18T00:54:31;102781.38;;;-4.07;100.00
48636;BME280;34429;52.332;5.614;2022-12-18T00:57:00;102783.97;;;-4.22;100.00
48636;BME280;34429;52.332;5.614;2022-12-18T00:59:28;102786.63;;;-4.20;100.00
48636;BME280;34429;52.332;5.614;2022-12-18T01:01:56;102791.91;;;-4.10;100.00
48636;BME280;34429;52.332;5.614;2022-12-18T01:04:25;102792.81;;;-4.09;100.00
48636;BME280;34429;52.332;5.614;2022-12-18T01:06:53;102783.97;;;-4.20;100.00
48636;BME280;34429;52.332;5.614;2022-12-18T01:09:24;102783.06;;;-4.24;100.00
48636;BME280;34429;52.332;5.614;2022-12-18T01:11:52;102766.44;;;-4.28;100.00
48636;BME280;34429;52.332;5.614;2022-12-18T01:14:21;102766.41;;;-4.31;100.00
48636;BME280;34429;52.332;5.614;2022-12-18T01:16:49;102762.00;;;-4.35;100.00
48636;BME280;34429;52.332;5.614;2022-12-18T01:19:18;102777.78;;;-4.36;100.00
48636;BME280;34429;52.332;5.614;2022-12-18T01:21:46;102782.16;;;-4.42;100.00
48636;BME280;34429;52.332;5.614;2022-12-18T01:24:17;102776.78;;;-4.59;100.00
48636;BME280;34429;52.332;5.614;2022-12-18T01:26:47;102779.41;;;-4.63;100.00
48636;BME280;34429;52.332;5.614;2022-12-18T01:29:16;102788.13;;;-4.70;100.00
48636;BME280;34429;52.332;5.614;2022-12-18T01:31:44;102781.06;;;-4.78;100.00
48636;BME280;34429;52.332;5.614;2022-12-18T01:34:12;102783.66;;;-4.82;100.00
48636;BME280;34429;52.332;5.614;2022-12-18T01:36:41;102789.81;;;-4.76;100.00
48636;BME280;34429;52.332;5.614;2022-12-18T01:39:11;102785.41;;;-4.84;100.00
48636;BME280;34429;52.332;5.614;2022-12-18T01:41:40;102788.06;;;-4.80;100.00
48636;BME280;34429;52.332;5.614;2022-12-18T01:44:59;102788.09;;;-4.77;100.00
48636;BME280;34429;52.332;5.614;2022-12-18T01:47:33;102778.44;;;-4.76;100.00
48636;BME280;34429;52.332;5.614;2022-12-18T01:50:08;102795.94;;;-4.80;100.00
48636;BME280;34429;52.332;5.614;2022-12-18T01:52:52;102790.72;;;-4.72;100.00
48636;BME280;34429;52.332;5.614;2022-12-18T01:55:23;102794.22;;;-4.73;100.00
48636;BME280;34429;52.332;5.614;2022-12-18T01:57:54;102794.16;;;-4.84;100.00
48636;BME280;34429;52.332;5.614;2022-12-18T02:00:26;102793.25;;;-4.87;100.00
48636;BME280;34429;52.332;5.614;2022-12-18T02:02:55;102805.50;;;-4.91;100.00
48636;BME280;34429;52.332;5.614;2022-12-18T02:05:31;102808.94;;;-4.97;100.00
48636;BME280;34429;52.332;5.614;2022-12-18T02:08:09;102811.56;;;-4.98;100.00
48636;BME280;34429;52.332;5.614;2022-12-18T02:10:45;102808.88;;;-5.04;100.00
48636;BME280;34429;52.332;5.614;2022-12-18T02:13:20;102821.06;;;-5.13;100.00
48636;BME280;34429;52.332;5.614;2022-12-18T02:16:01;102825.44;;;-5.16;100.00
48636;BME280;34429;52.332;5.614;2022-12-18T02:18:34;102821.06;;;-5.13;100.00
48636;BME280;34429;52.332;5.614;2022-12-18T02:21:09;102833.31;;;-5.16;100.00
48636;BME280;34429;52.332;5.614;2022-12-18T02:23:53;102837.63;;;-5.21;100.00
48636;BME280;34429;52.332;5.614;2022-12-18T02:26:30;102834.94;;;-5.26;100.00
48636;BME280;34429;52.332;5.614;2022-12-18T02:29:03;102833.16;;;-5.30;100.00
48636;BME280;34429;52.332;5.614;2022-12-18T02:31:38;102825.25;;;-5.35;100.00
48636;BME280;34429;52.332;5.614;2022-12-18T02:34:09;102834.06;;;-5.30;100.00
48636;BME280;34429;52.332;5.614;2022-12-18T02:36:41;102832.34;;;-5.24;100.00
48636;BME280;34429;52.332;5.614;2022-12-18T02:39:12;102834.09;;;-5.23;100.00
48636;BME280;34429;52.332;5.614;2022-12-18T02:41:46;102813.78;;;-5.46;100.00
48636;BME280;34429;52.332;5.614;2022-12-18T02:44:15;102805.84;;;-5.51;100.00
48636;BME280;34429;52.332;5.614;2022-12-18T02:46:45;102799.72;;;-5.51;100.00
48636;BME280;34429;52.332;5.614;2022-12-18T02:49:30;102796.19;;;-5.58;100.00
48636;BME280;34429;52.332;5.614;2022-12-18T02:52:07;102792.66;;;-5.58;100.00
48636;BME280;34429;52.332;5.614;2022-12-18T02:54:49;102789.16;;;-5.60;100.00
48636;BME280;34429;52.332;5.614;2022-12-18T02:57:30;102782.09;;;-5.68;100.00
48636;BME280;34429;52.332;5.614;2022-12-18T03:00:06;102786.34;;;-5.77;100.00
48636;BME280;34429;52.332;5.614;2022-12-18T03:02:39;102773.22;;;-5.79;100.00
48636;BME280;34429;52.332;5.614;2022-12-18T03:05:13;102775.91;;;-5.73;100.00
48636;BME280;34429;52.332;5.614;2022-12-18T03:07:47;102788.16;;;-5.72;100.00
48636;BME280;34429;52.332;5.614;2022-12-18T03:10:20;102774.16;;;-5.74;100.00
48636;BME280;34429;52.332;5.614;2022-12-18T03:12:58;102780.28;;;-5.73;100.00
48636;BME280;34429;52.332;5.614;2022-12-18T03:15:31;102784.56;;;-5.80;100.00
48636;BME280;34429;52.332;5.614;2022-12-18T03:18:05;102778.41;;;-5.85;100.00
48636;BME280;34429;52.332;5.614;2022-12-18T03:20:37;102774.97;;;-5.79;100.00
48636;BME280;34429;52.332;5.614;2022-12-18T03:23:10;102769.69;;;-5.84;100.00
48636;BME280;34429;52.332;5.614;2022-12-18T03:25:43;102784.47;;;-5.89;100.00
48636;BME280;34429;52.332;5.614;2022-12-18T03:28:16;102779.22;;;-5.91;100.00
48636;BME280;34429;52.332;5.614;2022-12-18T03:30:50;102772.97;;;-6.04;100.00
48636;BME280;34429;52.332;5.614;2022-12-18T03:33:24;102763.41;;;-6.02;100.00
48636;BME280;34429;52.332;5.614;2022-12-18T03:35:54;102766.88;;;-6.03;100.00
48636;BME280;34429;52.332;5.614;2022-12-18T03:38:23;102763.50;;;-5.89;100.00
48636;BME280;34429;52.332;5.614;2022-12-18T03:40:58;102750.34;;;-5.92;100.00
48636;BME280;34429;52.332;5.614;2022-12-18T03:43:36;102751.16;;;-6.03;100.00
48636;BME280;34429;52.332;5.614;2022-12-18T03:46:13;102752.94;;;-6.02;100.00
48636;BME280;34429;52.332;5.614;2022-12-18T03:48:44;102757.16;;;-6.13;100.00
48636;BME280;34429;52.332;5.614;2022-12-18T03:51:19;102759.81;;;-6.10;100.00
48636;BME280;34429;52.332;5.614;2022-12-18T03:53:54;102749.34;;;-6.07;100.00
48636;BME280;34429;52.332;5.614;2022-12-18T03:56:25;102747.59;;;-6.11;100.00
48636;BME280;34429;52.332;5.614;2022-12-18T03:58:59;102751.00;;;-6.18;100.00
48636;BME280;34429;52.332;5.614;2022-12-18T04:01:32;102745.00;;;-6.09;100.00
48636;BME280;34429;52.332;5.614;2022-12-18T04:04:02;102739.66;;;-6.16;100.00
48636;BME280;34429;52.332;5.614;2022-12-18T04:06:32;102742.34;;;-6.11;100.00
48636;BME280;34429;52.332;5.614;2022-12-18T04:09:01;102743.22;;;-6.10;100.00
48636;BME280;34429;52.332;5.614;2022-12-18T04:11:30;102734.50;;;-6.08;100.00
48636;BME280;34429;52.332;5.614;2022-12-18T04:14:01;102737.03;;;-6.14;100.00
48636;BME280;34429;52.332;5.614;2022-12-18T04:16:29;102738.81;;;-6.11;100.00
48636;BME280;34429;52.332;5.614;2022-12-18T04:18:58;102731.81;;;-6.14;100.00
48636;BME280;34429;52.332;5.614;2022-12-18T04:21:26;102736.94;;;-6.23;100.00
48636;BME280;34429;52.332;5.614;2022-12-18T04:23:54;102724.66;;;-6.27;100.00
48636;BME280;34429;52.332;5.614;2022-12-18T04:26:23;102726.47;;;-6.23;100.00
48636;BME280;34429;52.332;5.614;2022-12-18T04:28:51;102725.69;;;-6.16;100.00
48636;BME280;34429;52.332;5.614;2022-12-18T04:31:22;102723.94;;;-6.16;100.00
48636;BME280;34429;52.332;5.614;2022-12-18T04:33:50;102717.63;;;-6.33;100.00
48636;BME280;34429;52.332;5.614;2022-12-18T04:36:19;102708.06;;;-6.29;100.00
48636;BME280;34429;52.332;5.614;2022-12-18T04:38:47;102708.19;;;-6.16;100.00
48636;BME280;34429;52.332;5.614;2022-12-18T04:41:15;102711.63;;;-6.23;100.00
48636;BME280;34429;52.332;5.614;2022-12-18T04:43:44;102717.75;;;-6.24;100.00
48636;BME280;34429;52.332;5.614;2022-12-18T04:46:12;102716.00;;;-6.23;100.00
48636;BME280;34429;52.332;5.614;2022-12-18T04:48:45;102722.03;;;-6.27;100.00
48636;BME280;34429;52.332;5.614;2022-12-18T04:51:14;102720.38;;;-6.21;100.00
48636;BME280;34429;52.332;5.614;2022-12-18T04:53:42;102725.63;;;-6.21;100.00
48636;BME280;34429;52.332;5.614;2022-12-18T04:56:13;102722.06;;;-6.24;100.00
48636;BME280;34429;52.332;5.614;2022-12-18T04:58:43;102732.53;;;-6.27;100.00
48636;BME280;34429;52.332;5.614;2022-12-18T05:01:13;102735.25;;;-6.21;100.00
48636;BME280;34429;52.332;5.614;2022-12-18T05:03:45;102732.53;;;-6.26;100.00
48636;BME280;34429;52.332;5.614;2022-12-18T05:06:13;102742.25;;;-6.17;100.00
48636;BME280;34429;52.332;5.614;2022-12-18T05:08:41;102746.72;;;-6.08;100.00
48636;BME280;34429;52.332;5.614;2022-12-18T05:11:12;102759.78;;;-6.13;100.00
48636;BME280;34429;52.332;5.614;2022-12-18T05:13:41;102765.00;;;-6.16;100.00
48636;BME280;34429;52.332;5.614;2022-12-18T05:16:10;102766.63;;;-6.24;100.00
48636;BME280;34429;52.332;5.614;2022-12-18T05:18:39;102769.19;;;-6.29;100.00
48636;BME280;34429;52.332;5.614;2022-12-18T05:21:10;102777.03;;;-6.30;100.00
48636;BME280;34429;52.332;5.614;2022-12-18T05:23:38;102783.06;;;-6.38;100.00
48636;BME280;34429;52.332;5.614;2022-12-18T05:26:07;102793.44;;;-6.47;100.00
48636;BME280;34429;52.332;5.614;2022-12-18T05:28:35;102793.28;;;-6.58;100.00
48636;BME280;34429;52.332;5.614;2022-12-18T05:31:04;102804.53;;;-6.66;100.00
48636;BME280;34429;52.332;5.614;2022-12-18T05:33:34;102797.47;;;-6.71;100.00
48636;BME280;34429;52.332;5.614;2022-12-18T05:36:04;102800.97;;;-6.70;100.00
48636;BME280;34429;52.332;5.614;2022-12-18T05:38:37;102793.97;;;-6.73;100.00
48636;BME280;34429;52.332;5.614;2022-12-18T05:41:07;102794.84;;;-6.72;100.00
48636;BME280;34429;52.332;5.614;2022-12-18T05:43:35;102786.09;;;-6.73;100.00
48636;BME280;34429;52.332;5.614;2022-12-18T05:46:05;102779.09;;;-6.75;100.00
48636;BME280;34429;52.332;5.614;2022-12-18T05:48:34;102777.28;;;-6.78;100.00
48636;BME280;34429;52.332;5.614;2022-12-18T05:51:07;102774.66;;;-6.79;100.00
48636;BME280;34429;52.332;5.614;2022-12-18T05:53:38;102763.25;;;-6.84;100.00
48636;BME280;34429;52.332;5.614;2022-12-18T05:56:09;102771.16;;;-6.81;100.00
48636;BME280;34429;52.332;5.614;2022-12-18T05:58:38;102756.31;;;-6.81;100.00
48636;BME280;34429;52.332;5.614;2022-12-18T06:01:08;102757.22;;;-6.76;100.00
48636;BME280;34429;52.332;5.614;2022-12-18T06:03:37;102758.97;;;-6.78;100.00
48636;BME280;34429;52.332;5.614;2022-12-18T06:06:13;102759.97;;;-6.70;100.00
48636;BME280;34429;52.332;5.614;2022-12-18T06:08:44;102753.75;;;-6.75;100.00
48636;BME280;34429;52.332;5.614;2022-12-18T06:11:15;102739.78;;;-6.78;100.00
48636;BME280;34429;52.332;5.614;2022-12-18T06:13:43;102744.94;;;-6.83;100.00
48636;BME280;34429;52.332;5.614;2022-12-18T06:16:12;102751.91;;;-6.83;100.00
48636;BME280;34429;52.332;5.614;2022-12-18T06:18:40;102745.81;;;-6.82;100.00
48636;BME280;34429;52.332;5.614;2022-12-18T06:21:09;102742.25;;;-6.86;100.00
48636;BME280;34429;52.332;5.614;2022-12-18T06:23:37;102741.41;;;-6.85;100.00
48636;BME280;34429;52.332;5.614;2022-12-18T06:26:10;102745.72;;;-6.89;100.00
48636;BME280;34429;52.332;5.614;2022-12-18T06:28:39;102739.56;;;-6.92;100.00
48636;BME280;34429;52.332;5.614;2022-12-18T06:31:08;102740.50;;;-6.87;100.00
48636;BME280;34429;52.332;5.614;2022-12-18T06:33:37;102726.44;;;-6.94;100.00
48636;BME280;34429;52.332;5.614;2022-12-18T06:36:07;102725.56;;;-6.94;100.00
48636;BME280;34429;52.332;5.614;2022-12-18T06:38:40;102715.09;;;-6.94;100.00
48636;BME280;34429;52.332;5.614;2022-12-18T06:41:13;102716.81;;;-6.96;100.00
48636;BME280;34429;52.332;5.614;2022-12-18T06:43:42;102711.63;;;-6.93;100.00
48636;BME280;34429;52.332;5.614;2022-12-18T06:46:11;102711.69;;;-6.90;100.00
48636;BME280;34429;52.332;5.614;2022-12-18T06:48:39;102706.34;;;-6.96;100.00
48636;BME280;34429;52.332;5.614;2022-12-18T06:51:08;102693.28;;;-6.95;100.00
48636;BME280;34429;52.332;5.614;2022-12-18T06:53:36;102700.31;;;-6.89;100.00
48636;BME280;34429;52.332;5.614;2022-12-18T06:56:06;102692.59;;;-6.83;100.00
48636;BME280;34429;52.332;5.614;2022-12-18T06:58:38;102695.41;;;-6.66;100.00
48636;BME280;34429;52.332;5.614;2022-12-18T07:01:08;102692.72;;;-6.71;100.00
48636;BME280;34429;52.332;5.614;2022-12-18T07:03:37;102692.63;;;-6.80;100.00
48636;BME280;34429;52.332;5.614;2022-12-18T07:06:06;102694.38;;;-6.76;100.00
48636;BME280;34429;52.332;5.614;2022-12-18T07:08:40;102693.63;;;-6.69;100.00
48636;BME280;34429;52.332;5.614;2022-12-18T07:11:09;102685.84;;;-6.62;100.00
48636;BME280;34429;52.332;5.614;2022-12-18T07:13:40;102684.06;;;-6.65;100.00
48636;BME280;34429;52.332;5.614;2022-12-18T07:16:09;102685.88;;;-6.59;100.00
48636;BME280;34429;52.332;5.614;2022-12-18T07:18:38;102680.69;;;-6.56;100.00
48636;BME280;34429;52.332;5.614;2022-12-18T07:21:08;102679.06;;;-6.45;100.00
48636;BME280;34429;52.332;5.614;2022-12-18T07:23:37;102672.19;;;-6.34;100.00
48636;BME280;34429;52.332;5.614;2022-12-18T07:26:06;102668.03;;;-6.14;100.00
48636;BME280;34429;52.332;5.614;2022-12-18T07:28:36;102669.81;;;-6.12;100.00
48636;BME280;34429;52.332;5.614;2022-12-18T07:31:08;102676.03;;;-6.01;100.00
48636;BME280;34429;52.332;5.614;2022-12-18T07:33:36;102676.97;;;-5.89;100.00
48636;BME280;34429;52.332;5.614;2022-12-18T07:36:06;102676.16;;;-5.82;100.00
48636;BME280;34429;52.332;5.614;2022-12-18T07:38:35;102671.97;;;-5.60;100.00
48636;BME280;34429;52.332;5.614;2022-12-18T07:41:05;102665.94;;;-5.48;100.00
48636;BME280;34429;52.332;5.614;2022-12-18T07:43:34;102664.28;;;-5.37;100.00
48636;BME280;34429;52.332;5.614;2022-12-18T07:46:03;102671.34;;;-5.30;100.00
48636;BME280;34429;52.332;5.614;2022-12-18T07:48:34;102656.47;;;-5.24;100.00
48636;BME280;34429;52.332;5.614;2022-12-18T07:51:04;102643.34;;;-5.24;100.00
48636;BME280;34429;52.332;5.614;2022-12-18T07:53:34;102632.94;;;-5.12;100.00
48636;BME280;34429;52.332;5.614;2022-12-18T07:56:05;102639.06;;;-5.10;100.00
48636;BME280;34429;52.332;5.614;2022-12-18T07:58:35;102629.44;;;-5.08;100.00
48636;BME280;34429;52.332;5.614;2022-12-18T08:01:04;102629.47;;;-5.05;100.00
48636;BME280;34429;52.332;5.614;2022-12-18T08:03:37;102638.22;;;-5.06;100.00
48636;BME280;34429;52.332;5.614;2022-12-18T08:06:07;102634.69;;;-5.08;100.00
48636;BME280;34429;52.332;5.614;2022-12-18T08:08:36;102638.22;;;-5.06;100.00
48636;BME280;34429;52.332;5.614;2022-12-18T08:11:06;102626.84;;;-5.03;100.00
48636;BME280;34429;52.332;5.614;2022-12-18T08:13:35;102619.88;;;-4.97;100.00
48636;BME280;34429;52.332;5.614;2022-12-18T08:16:05;102619.88;;;-4.97;100.00
48636;BME280;34429;52.332;5.614;2022-12-18T08:18:37;102608.50;;;-4.99;100.00
48636;BME280;34429;52.332;5.614;2022-12-18T08:21:09;102618.09;;;-4.98;100.00
48636;BME280;34429;52.332;5.614;2022-12-18T08:23:38;102619.03;;;-4.89;100.00
48636;BME280;34429;52.332;5.614;2022-12-18T08:26:06;102620.78;;;-4.88;100.00
48636;BME280;34429;52.332;5.614;2022-12-18T08:28:35;102617.28;;;-4.87;100.00
48636;BME280;34429;52.332;5.614;2022-12-18T08:31:04;102610.31;;;-4.73;100.00
48636;BME280;34429;52.332;5.614;2022-12-18T08:33:33;102612.09;;;-4.63;100.00
48636;BME280;34429;52.332;5.614;2022-12-18T08:36:05;102616.50;;;-4.54;100.00
48636;BME280;34429;52.332;5.614;2022-12-18T08:38:33;102620.03;;;-4.52;100.00
48636;BME280;34429;52.332;5.614;2022-12-18T08:41:03;102619.19;;;-4.40;100.00
48636;BME280;34429;52.332;5.614;2022-12-18T08:43:32;102637.56;;;-4.43;100.00
48636;BME280;34429;52.332;5.614;2022-12-18T08:46:15;102648.06;;;-4.52;100.00
48636;BME280;34429;52.332;5.614;2022-12-18T08:48:44;102648.06;;;-4.48;100.00
48636;BME280;34429;52.332;5.614;2022-12-18T08:51:16;102647.19;;;-4.48;100.00
48636;BME280;34429;52.332;5.614;2022-12-18T08:53:45;102645.41;;;-4.55;100.00
48636;BME280;34429;52.332;5.614;2022-12-18T08:56:14;102645.44;;;-4.46;100.00
48636;BME280;34429;52.332;5.614;2022-12-18T08:58:43;102636.69;;;-4.39;100.00
48636;BME280;34429;52.332;5.614;2022-12-18T09:01:12;102644.56;;;-4.41;100.00
48636;BME280;34429;52.332;5.614;2022-12-18T09:03:41;102639.38;;;-4.28;100.00
48636;BME280;34429;52.332;5.614;2022-12-18T09:06:09;102635.00;;;-4.09;100.00
48636;BME280;34429;52.332;5.614;2022-12-18T09:08:44;102630.63;;;-4.16;100.00
48636;BME280;34429;52.332;5.614;2022-12-18T09:11:14;102621.88;;;-4.06;100.00
48636;BME280;34429;52.332;5.614;2022-12-18T09:13:43;102622.72;;;-3.90;100.00
48636;BME280;34429;52.332;5.614;2022-12-18T09:16:14;102615.72;;;-3.83;100.00
48636;BME280;34429;52.332;5.614;2022-12-18T09:18:42;102617.50;;;-3.82;100.00
48636;BME280;34429;52.332;5.614;2022-12-18T09:21:12;102619.22;;;-3.69;100.00
48636;BME280;34429;52.332;5.614;2022-12-18T09:23:44;102635.00;;;-3.67;100.00
48636;BME280;34429;52.332;5.614;2022-12-18T09:26:12;102632.38;;;-3.61;100.00
48636;BME280;34429;52.332;5.614;2022-12-18T09:28:40;102635.00;;;-3.57;100.00
48636;BME280;34429;52.332;5.614;2022-12-18T09:31:15;102627.97;;;-3.42;100.00
48636;BME280;34429;52.332;5.614;2022-12-18T09:33:44;102624.44;;;-3.50;100.00
48636;BME280;34429;52.332;5.614;2022-12-18T09:36:14;102619.19;;;-3.41;100.00
48636;BME280;34429;52.332;5.614;2022-12-18T09:38:46;102614.75;;;-3.30;100.00
48636;BME280;34429;52.332;5.614;2022-12-18T09:41:24;102615.66;;;-3.28;100.00
48636;BME280;34429;52.332;5.614;2022-12-18T09:44:01;102636.75;;;-3.34;100.00
48636;BME280;34429;52.332;5.614;2022-12-18T09:46:33;102616.50;;;-3.24;100.00
48636;BME280;34429;52.332;5.614;2022-12-18T09:49:06;102605.09;;;-3.25;100.00
48636;BME280;34429;52.332;5.614;2022-12-18T09:51:42;102599.81;;;-3.22;100.00
48636;BME280;34429;52.332;5.614;2022-12-18T09:54:18;102589.25;;;-3.12;100.00
48636;BME280;34429;52.332;5.614;2022-12-18T09:56:49;102593.63;;;-3.05;100.00
48636;BME280;34429;52.332;5.614;2022-12-18T09:59:22;102588.31;;;-2.99;100.00
48636;BME280;34429;52.332;5.614;2022-12-18T10:01:52;102579.53;;;-2.96;100.00
48636;BME280;34429;52.332;5.614;2022-12-18T10:04:20;102582.16;;;-2.95;100.00
48636;BME280;34429;52.332;5.614;2022-12-18T10:06:53;102562.75;;;-2.78;100.00
48636;BME280;34429;52.332;5.614;2022-12-18T10:09:31;102559.22;;;-2.73;100.00
48636;BME280;34429;52.332;5.614;2022-12-18T10:12:07;102559.16;;;-2.65;100.00
48636;BME280;34429;52.332;5.614;2022-12-18T10:14:43;102558.31;;;-2.70;100.00
48636;BME280;34429;52.332;5.614;2022-12-18T10:17:22;102564.56;;;-2.84;100.00
48636;BME280;34429;52.332;5.614;2022-12-18T10:19:55;102554.81;;;-2.71;100.00
48636;BME280;34429;52.332;5.614;2022-12-18T10:22:36;102550.28;;;-2.49;100.00
48636;BME280;34429;52.332;5.614;2022-12-18T10:25:19;102547.69;;;-2.56;100.00
48636;BME280;34429;52.332;5.614;2022-12-18T10:27:54;102538.81;;;-2.41;100.00
48636;BME280;34429;52.332;5.614;2022-12-18T10:30:25;102542.31;;;-2.41;100.00
48636;BME280;34429;52.332;5.614;2022-12-18T10:32:54;102540.53;;;-2.37;100.00
48636;BME280;34429;52.332;5.614;2022-12-18T10:35:25;102536.06;;;-2.26;100.00
48636;BME280;34429;52.332;5.614;2022-12-18T10:38:07;102523.72;;;-2.24;100.00
48636;BME280;34429;52.332;5.614;2022-12-18T10:40:53;102521.00;;;-2.12;100.00
48636;BME280;34429;52.332;5.614;2022-12-18T10:43:25;102513.09;;;-2.15;100.00
48636;BME280;34429;52.332;5.614;2022-12-18T10:46:12;102514.06;;;-2.25;100.00
48636;BME280;34429;52.332;5.614;2022-12-18T10:48:52;102521.91;;;-2.16;100.00
48636;BME280;34429;52.332;5.614;2022-12-18T10:51:23;102527.06;;;-2.03;100.00
48636;BME280;34429;52.332;5.614;2022-12-18T10:53:54;102539.94;;;-1.71;100.00
48636;BME280;34429;52.332;5.614;2022-12-18T10:56:30;102547.88;;;-1.72;100.00
48636;BME280;34429;52.332;5.614;2022-12-18T10:59:02;102542.69;;;-1.82;100.00
48636;BME280;34429;52.332;5.614;2022-12-18T11:01:46;102526.69;;;-1.63;100.00
48636;BME280;34429;52.332;5.614;2022-12-18T11:04:18;102527.56;;;-1.64;100.00
48636;BME280;34429;52.332;5.614;2022-12-18T11:06:58;102522.19;;;-1.56;100.00
48636;BME280;34429;52.332;5.614;2022-12-18T11:09:28;102517.13;;;-1.75;100.00
48636;BME280;34429;52.332;5.614;2022-12-18T11:12:02;102515.09;;;-1.51;100.00
48636;BME280;34429;52.332;5.614;2022-12-18T11:14:34;102524.66;;;-1.39;100.00
48636;BME280;34429;52.332;5.614;2022-12-18T11:17:02;102505.19;;;-1.32;100.00
48636;BME280;34429;52.332;5.614;2022-12-18T11:19:33;102499.84;;;-1.26;100.00
48636;BME280;34429;52.332;5.614;2022-12-18T11:22:16;102483.97;;;-1.26;100.00
48636;BME280;34429;52.332;5.614;2022-12-18T11:24:52;102483.22;;;-1.36;100.00
48636;BME280;34429;52.332;5.614;2022-12-18T11:27:24;102473.47;;;-1.29;100.00
48636;BME280;34429;52.332;5.614;2022-12-18T11:29:53;102474.09;;;-1.12;100.00
48636;BME280;34429;52.332;5.614;2022-12-18T11:32:35;102466.25;;;-1.18;100.00
48636;BME280;34429;52.332;5.614;2022-12-18T11:35:15;102476.81;;;-1.18;100.00
48636;BME280;34429;52.332;5.614;2022-12-18T11:37:48;102481.28;;;-1.21;100.00
48636;BME280;34429;52.332;5.614;2022-12-18T11:40:20;102478.56;;;-1.17;100.00
48636;BME280;34429;52.332;5.614;2022-12-18T11:42:59;102472.09;;;-0.93;100.00
48636;BME280;34429;52.332;5.614;2022-12-18T11:45:33;102462.56;;;-1.04;100.00
48636;BME280;34429;52.332;5.614;2022-12-18T11:48:05;102450.19;;;-1.02;100.00
48636;BME280;34429;52.332;5.614;2022-12-18T11:50:46;102455.44;;;-0.99;100.00
48636;BME280;34429;52.332;5.614;2022-12-18T11:53:17;102463.13;;;-0.85;100.00
48636;BME280;34429;52.332;5.614;2022-12-18T11:55:54;102467.75;;;-0.98;100.00
48636;BME280;34429;52.332;5.614;2022-12-18T11:58:35;102462.53;;;-1.03;100.00
48636;BME280;34429;52.332;5.614;2022-12-18T12:01:13;102441.19;;;-0.89;100.00
48636;BME280;34429;52.332;5.614;2022-12-18T12:04:01;102434.00;;;-0.81;100.00
48636;BME280;34429;52.332;5.614;2022-12-18T12:06:37;102420.66;;;-0.73;100.00
48636;BME280;34429;52.332;5.614;2022-12-18T12:09:16;102411.94;;;-0.80;100.00
48636;BME280;34429;52.332;5.614;2022-12-18T12:11:57;102410.13;;;-0.75;100.00
48636;BME280;34429;52.332;5.614;2022-12-18T12:14:40;102399.53;;;-0.75;100.00
48636;BME280;34429;52.332;5.614;2022-12-18T12:17:17;102397.81;;;-0.77;100.00
48636;BME280;34429;52.332;5.614;2022-12-18T12:19:54;102403.97;;;-0.77;100.00
48636;BME280;34429;52.332;5.614;2022-12-18T12:22:35;102408.84;;;-0.52;100.00
48636;BME280;34429;52.332;5.614;2022-12-18T12:25:20;102396.78;;;-0.68;100.00
48636;BME280;34429;52.332;5.614;2022-12-18T12:28:00;102404.69;;;-0.67;100.00
48636;BME280;34429;52.332;5.614;2022-12-18T12:30:39;102399.16;;;-0.51;100.00
48636;BME280;34429;52.332;5.614;2022-12-18T12:33:22;102396.47;;;-0.50;100.00
48636;BME280;34429;52.332;5.614;2022-12-18T12:36:00;102398.22;;;-0.49;100.00
48636;BME280;34429;52.332;5.614;2022-12-18T12:38:35;102394.72;;;-0.51;100.00
48636;BME280;34429;52.332;5.614;2022-12-18T12:41:06;102394.22;;;-0.23;100.00
48636;BME280;34429;52.332;5.614;2022-12-18T12:43:58;102378.63;;;-0.39;100.00
48636;BME280;34429;52.332;5.614;2022-12-18T12:46:31;102372.56;;;-0.44;100.00
48636;BME280;34429;52.332;5.614;2022-12-18T12:49:03;102369.69;;;-0.31;100.00
48636;BME280;34429;52.332;5.614;2022-12-18T12:51:39;102357.22;;;-0.25;100.00
48636;BME280;34429;52.332;5.614;2022-12-18T12:54:14;102358.75;;;-0.13;100.00
48636;BME280;34429;52.332;5.614;2022-12-18T12:56:48;102357.84;;;-0.10;100.00
48636;BME280;34429;52.332;5.614;2022-12-18T12:59:27;102359.81;;;-0.22;100.00
48636;BME280;34429;52.332;5.614;2022-12-18T13:02:06;102351.19;;;-0.33;100.00
48636;BME280;34429;52.332;5.614;2022-12-18T13:04:42;102355.69;;;-0.37;100.00
48636;BME280;34429;52.332;5.614;2022-12-18T13:07:15;102354.47;;;-0.20;100.00